sensor_id;sensor_type;location;lat;lon;timestamp;pressure;altitude;pressure_sealevel;temperature;humidity
51369;BME280;37459;51.416;5.502;2022-11-21T00:01:56;99996.88;;;5.52;100.00
51369;BME280;37459;51.416;5.502;2022-11-21T00:04:23;99996.06;;;5.51;100.00
51369;BME280;37459;51.416;5.502;2022-11-21T00:06:49;100005.97;;;5.58;100.00
51369;BME280;37459;51.416;5.502;2022-11-21T00:09:16;100000.00;;;5.55;100.00
51369;BME280;37459;51.416;5.502;2022-11-21T00:11:43;99987.00;;;5.52;100.00
51369;BME280;37459;51.416;5.502;2022-11-21T00:14:09;99992.34;;;5.52;100.00
51369;BME280;37459;51.416;5.502;2022-11-21T00:16:37;99989.06;;;5.50;100.00
51369;BME280;37459;51.416;5.502;2022-11-21T00:19:04;99975.06;;;5.48;100.00
51369;BME280;37459;51.416;5.502;2022-11-21T00:21:30;99968.22;;;5.39;100.00
51369;BME280;37459;51.416;5.502;2022-11-21T00:23:57;99977.50;;;5.43;100.00
51369;BME280;37459;51.416;5.502;2022-11-21T00:26:23;99976.03;;;5.34;100.00
51369;BME280;37459;51.416;5.502;2022-11-21T00:28:50;99991.47;;;5.39;100.00
51369;BME280;37459;51.416;5.502;2022-11-21T00:31:18;99986.72;;;5.34;100.00
51369;BME280;37459;51.416;5.502;2022-11-21T00:33:46;99990.22;;;5.34;100.00
51369;BME280;37459;51.416;5.502;2022-11-21T00:36:12;100003.75;;;5.33;100.00
51369;BME280;37459;51.416;5.502;2022-11-21T00:38:39;99991.38;;;5.25;100.00
51369;BME280;37459;51.416;5.502;2022-11-21T00:41:05;100007.84;;;5.29;100.00
51369;BME280;37459;51.416;5.502;2022-11-21T00:43:32;100008.47;;;5.31;100.00
51369;BME280;37459;51.416;5.502;2022-11-21T00:45:58;99988.50;;;5.27;100.00
51369;BME280;37459;51.416;5.502;2022-11-21T00:48:27;100000.44;;;5.31;100.00
51369;BME280;37459;51.416;5.502;2022-11-21T00:50:55;99995.09;;;5.31;100.00
51369;BME280;37459;51.416;5.502;2022-11-21T00:53:21;99987.50;;;5.28;100.00
51369;BME280;37459;51.416;5.502;2022-11-21T00:55:48;99991.38;;;5.25;100.00
51369;BME280;37459;51.416;5.502;2022-11-21T00:58:15;99986.41;;;5.22;100.00
51369;BME280;37459;51.416;5.502;2022-11-21T01:00:41;99987.47;;;5.21;100.00
51369;BME280;37459;51.416;5.502;2022-11-21T01:03:08;99983.97;;;5.21;100.00
51369;BME280;37459;51.416;5.502;2022-11-21T01:05:34;99988.09;;;5.23;100.00
51369;BME280;37459;51.416;5.502;2022-11-21T01:08:02;99986.63;;;5.21;100.00
51369;BME280;37459;51.416;5.502;2022-11-21T01:10:29;99992.97;;;5.20;100.00
51369;BME280;37459;51.416;5.502;2022-11-21T01:12:55;99988.63;;;5.12;100.00
51369;BME280;37459;51.416;5.502;2022-11-21T01:15:22;99974.78;;;5.02;100.00
51369;BME280;37459;51.416;5.502;2022-11-21T01:17:48;99988.38;;;5.07;100.00
51369;BME280;37459;51.416;5.502;2022-11-21T01:20:15;100000.91;;;5.06;100.00
51369;BME280;37459;51.416;5.502;2022-11-21T01:22:41;99996.16;;;5.02;100.00
51369;BME280;37459;51.416;5.502;2022-11-21T01:25:09;99992.81;;;4.93;100.00
51369;BME280;37459;51.416;5.502;2022-11-21T01:27:36;99997.50;;;4.91;100.00
51369;BME280;37459;51.416;5.502;2022-11-21T01:30:03;99997.28;;;4.86;100.00
51369;BME280;37459;51.416;5.502;2022-11-21T01:32:30;99998.09;;;4.86;100.00
51369;BME280;37459;51.416;5.502;2022-11-21T01:34:56;99997.88;;;4.88;100.00
51369;BME280;37459;51.416;5.502;2022-11-21T01:37:23;99998.72;;;4.88;100.00
51369;BME280;37459;51.416;5.502;2022-11-21T01:39:49;99994.22;;;4.89;100.00
51369;BME280;37459;51.416;5.502;2022-11-21T01:42:17;99994.63;;;4.86;100.00
51369;BME280;37459;51.416;5.502;2022-11-21T01:44:49;99985.38;;;4.88;100.00
51369;BME280;37459;51.416;5.502;2022-11-21T01:47:16;99992.19;;;4.91;100.00
51369;BME280;37459;51.416;5.502;2022-11-21T01:49:43;99994.84;;;4.91;100.00
51369;BME280;37459;51.416;5.502;2022-11-21T01:52:13;99989.50;;;4.91;100.00
51369;BME280;37459;51.416;5.502;2022-11-21T01:54:43;99985.75;;;4.85;100.00
51369;BME280;37459;51.416;5.502;2022-11-21T01:57:13;99979.78;;;4.83;100.00
51369;BME280;37459;51.416;5.502;2022-11-21T01:59:46;99985.13;;;4.83;100.00
51369;BME280;37459;51.416;5.502;2022-11-21T02:02:16;99980.41;;;4.85;100.00
51369;BME280;37459;51.416;5.502;2022-11-21T02:04:44;99985.06;;;4.77;100.00
51369;BME280;37459;51.416;5.502;2022-11-21T02:07:12;99989.00;;;4.81;100.00
51369;BME280;37459;51.416;5.502;2022-11-21T02:09:41;99985.34;;;4.82;100.00
51369;BME280;37459;51.416;5.502;2022-11-21T02:12:14;99976.69;;;4.80;100.00
51369;BME280;37459;51.416;5.502;2022-11-21T02:14:44;99988.13;;;4.73;100.00
51369;BME280;37459;51.416;5.502;2022-11-21T02:17:12;99979.50;;;4.71;100.00
51369;BME280;37459;51.416;5.502;2022-11-21T02:19:42;99993.06;;;4.77;100.00
51369;BME280;37459;51.416;5.502;2022-11-21T02:22:14;99982.97;;;4.72;100.00
51369;BME280;37459;51.416;5.502;2022-11-21T02:24:46;99997.00;;;4.81;100.00
51369;BME280;37459;51.416;5.502;2022-11-21T02:27:16;99991.03;;;4.79;100.00
51369;BME280;37459;51.416;5.502;2022-11-21T02:29:43;99990.41;;;4.77;100.00
51369;BME280;37459;51.416;5.502;2022-11-21T02:32:19;99988.13;;;4.73;100.00
51369;BME280;37459;51.416;5.502;2022-11-21T02:34:46;99991.00;;;4.72;100.00
51369;BME280;37459;51.416;5.502;2022-11-21T02:37:13;99978.66;;;4.71;100.00
51369;BME280;37459;51.416;5.502;2022-11-21T02:39:40;99995.09;;;4.74;100.00
51369;BME280;37459;51.416;5.502;2022-11-21T02:42:11;99999.81;;;4.72;100.00
51369;BME280;37459;51.416;5.502;2022-11-21T02:44:48;100011.94;;;4.68;100.00
51369;BME280;37459;51.416;5.502;2022-11-21T02:47:18;100010.25;;;4.67;100.00
51369;BME280;37459;51.416;5.502;2022-11-21T02:49:50;100014.50;;;4.62;100.00
51369;BME280;37459;51.416;5.502;2022-11-21T02:52:19;100019.66;;;4.63;100.00
51369;BME280;37459;51.416;5.502;2022-11-21T02:54:45;100008.97;;;4.63;100.00
51369;BME280;37459;51.416;5.502;2022-11-21T02:57:12;100006.50;;;4.62;100.00
51369;BME280;37459;51.416;5.502;2022-11-21T02:59:38;100003.66;;;4.63;100.00
51369;BME280;37459;51.416;5.502;2022-11-21T03:02:06;99997.50;;;4.63;100.00
51369;BME280;37459;51.416;5.502;2022-11-21T03:04:32;99995.00;;;4.61;100.00
51369;BME280;37459;51.416;5.502;2022-11-21T03:06:59;99995.47;;;4.65;100.00
51369;BME280;37459;51.416;5.502;2022-11-21T03:09:26;99991.34;;;4.62;100.00
51369;BME280;37459;51.416;5.502;2022-11-21T03:11:52;99994.88;;;4.69;100.00
51369;BME280;37459;51.416;5.502;2022-11-21T03:14:19;100000.22;;;4.69;100.00
51369;BME280;37459;51.416;5.502;2022-11-21T03:16:45;99995.06;;;4.68;100.00
51369;BME280;37459;51.416;5.502;2022-11-21T03:19:13;99991.97;;;4.64;100.00
51369;BME280;37459;51.416;5.502;2022-11-21T03:21:39;99995.31;;;4.73;100.00
51369;BME280;37459;51.416;5.502;2022-11-21T03:24:07;99987.00;;;4.61;100.00
51369;BME280;37459;51.416;5.502;2022-11-21T03:26:33;100003.66;;;4.63;100.00
51369;BME280;37459;51.416;5.502;2022-11-21T03:29:00;99999.72;;;4.59;100.00
51369;BME280;37459;51.416;5.502;2022-11-21T03:31:26;99978.28;;;4.52;100.00
51369;BME280;37459;51.416;5.502;2022-11-21T03:33:53;99993.16;;;4.62;100.00
51369;BME280;37459;51.416;5.502;2022-11-21T03:36:20;99976.44;;;4.53;100.00
51369;BME280;37459;51.416;5.502;2022-11-21T03:38:47;99991.69;;;4.59;100.00
51369;BME280;37459;51.416;5.502;2022-11-21T03:41:13;99982.06;;;4.58;100.00
51369;BME280;37459;51.416;5.502;2022-11-21T03:43:55;99983.06;;;4.57;100.00
51369;BME280;37459;51.416;5.502;2022-11-21T03:46:22;99985.53;;;4.59;100.00
51369;BME280;37459;51.416;5.502;2022-11-21T03:48:48;99989.28;;;4.64;100.00
51369;BME280;37459;51.416;5.502;2022-11-21T03:51:15;99992.97;;;4.63;100.00
51369;BME280;37459;51.416;5.502;2022-11-21T03:53:43;99986.34;;;4.59;100.00
51369;BME280;37459;51.416;5.502;2022-11-21T03:56:09;99972.53;;;4.49;100.00
51369;BME280;37459;51.416;5.502;2022-11-21T03:58:36;99990.81;;;4.52;100.00
51369;BME280;37459;51.416;5.502;2022-11-21T04:01:03;99965.06;;;4.44;100.00
51369;BME280;37459;51.416;5.502;2022-11-21T04:03:30;99993.38;;;4.60;100.00
51369;BME280;37459;51.416;5.502;2022-11-21T04:05:57;100001.09;;;4.55;100.00
51369;BME280;37459;51.416;5.502;2022-11-21T04:08:23;99997.56;;;4.48;100.00
51369;BME280;37459;51.416;5.502;2022-11-21T04:10:52;99998.66;;;4.53;100.00
51369;BME280;37459;51.416;5.502;2022-11-21T04:13:19;99983.38;;;4.47;100.00
51369;BME280;37459;51.416;5.502;2022-11-21T04:15:46;99982.94;;;4.44;100.00
51369;BME280;37459;51.416;5.502;2022-11-21T04:18:13;99970.94;;;4.33;100.00
51369;BME280;37459;51.416;5.502;2022-11-21T04:20:39;99987.50;;;4.50;100.00
51369;BME280;37459;51.416;5.502;2022-11-21T04:23:06;99964.38;;;4.36;100.00
51369;BME280;37459;51.416;5.502;2022-11-21T04:25:33;99985.47;;;4.52;100.00
51369;BME280;37459;51.416;5.502;2022-11-21T04:28:02;99985.88;;;4.49;100.00
51369;BME280;37459;51.416;5.502;2022-11-21T04:30:29;99986.25;;;4.46;100.00
51369;BME280;37459;51.416;5.502;2022-11-21T04:32:56;99973.22;;;4.36;100.00
51369;BME280;37459;51.416;5.502;2022-11-21T04:35:23;99987.44;;;4.43;100.00
51369;BME280;37459;51.416;5.502;2022-11-21T04:37:50;99992.34;;;4.40;100.00
51369;BME280;37459;51.416;5.502;2022-11-21T04:40:17;99982.28;;;4.42;100.00
51369;BME280;37459;51.416;5.502;2022-11-21T04:42:45;99970.97;;;4.40;100.00
51369;BME280;37459;51.416;5.502;2022-11-21T04:45:14;99977.16;;;4.40;100.00
51369;BME280;37459;51.416;5.502;2022-11-21T04:47:43;99964.00;;;4.39;100.00
51369;BME280;37459;51.416;5.502;2022-11-21T04:50:11;99965.28;;;4.43;100.00
51369;BME280;37459;51.416;5.502;2022-11-21T04:52:38;99965.91;;;4.45;100.00
51369;BME280;37459;51.416;5.502;2022-11-21T04:55:07;99954.97;;;4.40;100.00
51369;BME280;37459;51.416;5.502;2022-11-21T04:57:34;99953.34;;;4.39;100.00
51369;BME280;37459;51.416;5.502;2022-11-21T05:00:00;99942.78;;;4.30;100.00
51369;BME280;37459;51.416;5.502;2022-11-21T05:02:28;99953.47;;;4.30;100.00
51369;BME280;37459;51.416;5.502;2022-11-21T05:04:55;99957.41;;;4.35;100.00
51369;BME280;37459;51.416;5.502;2022-11-21T05:07:21;99966.81;;;4.30;100.00
51369;BME280;37459;51.416;5.502;2022-11-21T05:09:48;99965.16;;;4.29;100.00
51369;BME280;37459;51.416;5.502;2022-11-21T05:12:14;99954.03;;;4.26;100.00
51369;BME280;37459;51.416;5.502;2022-11-21T05:14:58;99937.31;;;4.17;100.00
51369;BME280;37459;51.416;5.502;2022-11-21T05:17:26;99947.50;;;4.28;100.00
51369;BME280;37459;51.416;5.502;2022-11-21T05:19:55;99942.53;;;4.25;100.00
51369;BME280;37459;51.416;5.502;2022-11-21T05:22:21;99938.22;;;4.24;100.00
51369;BME280;37459;51.416;5.502;2022-11-21T05:24:47;99933.91;;;4.23;100.00
51369;BME280;37459;51.416;5.502;2022-11-21T05:27:14;99932.63;;;4.19;100.00
51369;BME280;37459;51.416;5.502;2022-11-21T05:29:41;99936.13;;;4.20;100.00
51369;BME280;37459;51.416;5.502;2022-11-21T05:32:07;99929.31;;;4.17;100.00
51369;BME280;37459;51.416;5.502;2022-11-21T05:34:34;99927.47;;;4.18;100.00
51369;BME280;37459;51.416;5.502;2022-11-21T05:37:02;99920.50;;;4.17;100.00
51369;BME280;37459;51.416;5.502;2022-11-21T05:39:29;99920.28;;;4.18;100.00
51369;BME280;37459;51.416;5.502;2022-11-21T05:41:55;99918.66;;;4.17;100.00
51369;BME280;37459;51.416;5.502;2022-11-21T05:44:22;99918.84;;;4.16;100.00
51369;BME280;37459;51.416;5.502;2022-11-21T05:46:47;99918.91;;;4.22;100.00
51369;BME280;37459;51.416;5.502;2022-11-21T05:49:14;99921.38;;;4.24;100.00
51369;BME280;37459;51.416;5.502;2022-11-21T05:51:40;99917.91;;;4.23;100.00
51369;BME280;37459;51.416;5.502;2022-11-21T05:54:11;99912.56;;;4.23;100.00
51369;BME280;37459;51.416;5.502;2022-11-21T05:56:38;99916.22;;;4.22;100.00
51369;BME280;37459;51.416;5.502;2022-11-21T05:59:05;99914.19;;;4.24;100.00
51369;BME280;37459;51.416;5.502;2022-11-21T06:01:31;99916.75;;;4.32;100.00
51369;BME280;37459;51.416;5.502;2022-11-21T06:04:15;99915.72;;;4.33;100.00
51369;BME280;37459;51.416;5.502;2022-11-21T06:06:43;99919.66;;;4.38;100.00
51369;BME280;37459;51.416;5.502;2022-11-21T06:09:11;99917.25;;;4.43;100.00
51369;BME280;37459;51.416;5.502;2022-11-21T06:11:37;99908.59;;;4.41;100.00
51369;BME280;37459;51.416;5.502;2022-11-21T06:14:04;99912.78;;;4.50;100.00
51369;BME280;37459;51.416;5.502;2022-11-21T06:16:30;99909.47;;;4.48;100.00
51369;BME280;37459;51.416;5.502;2022-11-21T06:18:57;99905.91;;;4.62;100.00
51369;BME280;37459;51.416;5.502;2022-11-21T06:21:25;99896.84;;;4.63;100.00
51369;BME280;37459;51.416;5.502;2022-11-21T06:23:53;99898.53;;;4.64;100.00
51369;BME280;37459;51.416;5.502;2022-11-21T06:26:23;99905.13;;;4.68;100.00
51369;BME280;37459;51.416;5.502;2022-11-21T06:28:50;99907.16;;;4.66;100.00
51369;BME280;37459;51.416;5.502;2022-11-21T06:31:18;99906.53;;;4.64;100.00
51369;BME280;37459;51.416;5.502;2022-11-21T06:33:46;99894.19;;;4.63;100.00
51369;BME280;37459;51.416;5.502;2022-11-21T06:36:14;99862.06;;;4.50;100.00
51369;BME280;37459;51.416;5.502;2022-11-21T06:38:41;99884.63;;;4.76;100.00
51369;BME280;37459;51.416;5.502;2022-11-21T06:41:10;99889.34;;;4.73;100.00
51369;BME280;37459;51.416;5.502;2022-11-21T06:43:38;99872.19;;;4.61;100.00
51369;BME280;37459;51.416;5.502;2022-11-21T06:46:05;99886.22;;;4.70;100.00
51369;BME280;37459;51.416;5.502;2022-11-21T06:48:33;99874.69;;;4.63;100.00
51369;BME280;37459;51.416;5.502;2022-11-21T06:51:02;99888.13;;;4.76;100.00
51369;BME280;37459;51.416;5.502;2022-11-21T06:53:29;99888.56;;;4.80;100.00
51369;BME280;37459;51.416;5.502;2022-11-21T06:55:57;99882.44;;;4.86;100.00
51369;BME280;37459;51.416;5.502;2022-11-21T06:58:24;99878.34;;;4.90;100.00
51369;BME280;37459;51.416;5.502;2022-11-21T07:00:52;99875.25;;;4.86;100.00
51369;BME280;37459;51.416;5.502;2022-11-21T07:03:18;99880.16;;;4.83;100.00
51369;BME280;37459;51.416;5.502;2022-11-21T07:05:45;99876.84;;;4.81;100.00
51369;BME280;37459;51.416;5.502;2022-11-21T07:08:11;99874.31;;;5.07;100.00
51369;BME280;37459;51.416;5.502;2022-11-21T07:10:38;99869.38;;;5.04;100.00
51369;BME280;37459;51.416;5.502;2022-11-21T07:13:09;99867.13;;;5.01;100.00
51369;BME280;37459;51.416;5.502;2022-11-21T07:15:49;99871.66;;;5.07;100.00
51369;BME280;37459;51.416;5.502;2022-11-21T07:18:17;99873.06;;;4.97;100.00
51369;BME280;37459;51.416;5.502;2022-11-21T07:20:44;99869.13;;;4.92;100.00
51369;BME280;37459;51.416;5.502;2022-11-21T07:23:11;99880.22;;;4.96;100.00
51369;BME280;37459;51.416;5.502;2022-11-21T07:25:38;99870.13;;;4.91;100.00
51369;BME280;37459;51.416;5.502;2022-11-21T07:28:06;99865.25;;;4.95;100.00
51369;BME280;37459;51.416;5.502;2022-11-21T07:30:34;99862.34;;;5.38;100.00
51369;BME280;37459;51.416;5.502;2022-11-21T07:33:02;99863.19;;;5.45;100.00
51369;BME280;37459;51.416;5.502;2022-11-21T07:35:31;99873.56;;;5.68;100.00
51369;BME280;37459;51.416;5.502;2022-11-21T07:37:58;99873.72;;;5.53;100.00
51369;BME280;37459;51.416;5.502;2022-11-21T07:40:25;99874.28;;;5.42;100.00
51369;BME280;37459;51.416;5.502;2022-11-21T07:42:51;99853.25;;;5.26;100.00
51369;BME280;37459;51.416;5.502;2022-11-21T07:45:18;99872.59;;;5.28;100.00
51369;BME280;37459;51.416;5.502;2022-11-21T07:47:45;99871.09;;;5.19;100.00
51369;BME280;37459;51.416;5.502;2022-11-21T07:50:11;99872.91;;;5.11;100.00
51369;BME280;37459;51.416;5.502;2022-11-21T07:52:39;99858.53;;;5.12;100.00
51369;BME280;37459;51.416;5.502;2022-11-21T07:55:07;99862.84;;;5.13;100.00
51369;BME280;37459;51.416;5.502;2022-11-21T07:57:33;99866.75;;;5.11;100.00
51369;BME280;37459;51.416;5.502;2022-11-21T08:00:00;99860.56;;;5.04;100.00
51369;BME280;37459;51.416;5.502;2022-11-21T08:02:27;99854.81;;;5.07;100.00
51369;BME280;37459;51.416;5.502;2022-11-21T08:04:54;99855.41;;;5.02;100.00
51369;BME280;37459;51.416;5.502;2022-11-21T08:07:21;99844.53;;;5.04;100.00
51369;BME280;37459;51.416;5.502;2022-11-21T08:09:49;99847.41;;;5.09;100.00
51369;BME280;37459;51.416;5.502;2022-11-21T08:12:16;99844.13;;;5.07;100.00
51369;BME280;37459;51.416;5.502;2022-11-21T08:14:43;99851.09;;;5.01;100.00
51369;BME280;37459;51.416;5.502;2022-11-21T08:17:09;99844.72;;;5.02;100.00
51369;BME280;37459;51.416;5.502;2022-11-21T08:19:36;99846.56;;;5.02;100.00
51369;BME280;37459;51.416;5.502;2022-11-21T08:22:02;99846.13;;;4.98;100.00
51369;BME280;37459;51.416;5.502;2022-11-21T08:24:29;99843.25;;;4.93;100.00
51369;BME280;37459;51.416;5.502;2022-11-21T08:26:58;99835.66;;;4.97;100.00
51369;BME280;37459;51.416;5.502;2022-11-21T08:29:25;99835.88;;;5.02;100.00
51369;BME280;37459;51.416;5.502;2022-11-21T08:31:52;99818.38;;;4.92;100.00
51369;BME280;37459;51.416;5.502;2022-11-21T08:34:18;99828.84;;;4.94;100.00
51369;BME280;37459;51.416;5.502;2022-11-21T08:36:45;99809.53;;;4.92;100.00
51369;BME280;37459;51.416;5.502;2022-11-21T08:39:11;99806.44;;;4.88;100.00
51369;BME280;37459;51.416;5.502;2022-11-21T08:41:37;99788.97;;;4.86;100.00
51369;BME280;37459;51.416;5.502;2022-11-21T08:44:23;99798.84;;;4.92;100.00
51369;BME280;37459;51.416;5.502;2022-11-21T08:46:49;99802.13;;;4.94;100.00
51369;BME280;37459;51.416;5.502;2022-11-21T08:49:16;99796.78;;;4.94;100.00
51369;BME280;37459;51.416;5.502;2022-11-21T08:51:42;99802.56;;;4.91;100.00
51369;BME280;37459;51.416;5.502;2022-11-21T08:54:09;99804.19;;;4.92;100.00
51369;BME280;37459;51.416;5.502;2022-11-21T08:56:36;99810.78;;;4.96;100.00
51369;BME280;37459;51.416;5.502;2022-11-21T08:59:02;99805.66;;;4.94;100.00
51369;BME280;37459;51.416;5.502;2022-11-21T09:01:30;99802.38;;;4.99;100.00
51369;BME280;37459;51.416;5.502;2022-11-21T09:03:58;99782.44;;;4.95;100.00
51369;BME280;37459;51.416;5.502;2022-11-21T09:06:25;99799.75;;;5.06;100.00
51369;BME280;37459;51.416;5.502;2022-11-21T09:08:51;99786.13;;;5.01;100.00
51369;BME280;37459;51.416;5.502;2022-11-21T09:11:18;99791.50;;;5.07;100.00
51369;BME280;37459;51.416;5.502;2022-11-21T09:13:44;99784.56;;;5.13;100.00
51369;BME280;37459;51.416;5.502;2022-11-21T09:16:33;99786.59;;;5.11;100.00
51369;BME280;37459;51.416;5.502;2022-11-21T09:19:17;99784.75;;;5.11;100.00
51369;BME280;37459;51.416;5.502;2022-11-21T09:21:45;99786.00;;;5.15;100.00
51369;BME280;37459;51.416;5.502;2022-11-21T09:24:11;99789.06;;;5.12;100.00
51369;BME280;37459;51.416;5.502;2022-11-21T09:26:38;99787.03;;;5.14;100.00
51369;BME280;37459;51.416;5.502;2022-11-21T09:29:04;99789.91;;;5.20;100.00
51369;BME280;37459;51.416;5.502;2022-11-21T09:31:31;99779.66;;;5.23;100.00
51369;BME280;37459;51.416;5.502;2022-11-21T09:33:59;99768.38;;;5.28;100.00
51369;BME280;37459;51.416;5.502;2022-11-21T09:36:26;99773.09;;;5.26;100.00
51369;BME280;37459;51.416;5.502;2022-11-21T09:38:52;99755.19;;;5.20;100.00
51369;BME280;37459;51.416;5.502;2022-11-21T09:41:25;99764.47;;;5.30;100.00
51369;BME280;37459;51.416;5.502;2022-11-21T09:44:18;99751.91;;;5.31;100.00
51369;BME280;37459;51.416;5.502;2022-11-21T09:46:49;99755.22;;;5.33;100.00
51369;BME280;37459;51.416;5.502;2022-11-21T09:49:23;99757.88;;;5.33;100.00
51369;BME280;37459;51.416;5.502;2022-11-21T09:51:50;99757.88;;;5.40;100.00
51369;BME280;37459;51.416;5.502;2022-11-21T09:54:22;99747.44;;;5.38;100.00
51369;BME280;37459;51.416;5.502;2022-11-21T09:56:52;99739.78;;;5.35;100.00
51369;BME280;37459;51.416;5.502;2022-11-21T09:59:28;99744.34;;;5.48;100.00
51369;BME280;37459;51.416;5.502;2022-11-21T10:01:57;99741.88;;;5.46;100.00
51369;BME280;37459;51.416;5.502;2022-11-21T10:04:26;99742.47;;;5.48;100.00
51369;BME280;37459;51.416;5.502;2022-11-21T10:06:59;99735.94;;;5.51;100.00
51369;BME280;37459;51.416;5.502;2022-11-21T10:09:39;99729.13;;;5.55;100.00
51369;BME280;37459;51.416;5.502;2022-11-21T10:12:15;99722.78;;;5.63;100.00
51369;BME280;37459;51.416;5.502;2022-11-21T10:15:12;99714.31;;;5.72;100.00
51369;BME280;37459;51.416;5.502;2022-11-21T10:17:49;99714.94;;;5.81;100.00
51369;BME280;37459;51.416;5.502;2022-11-21T10:20:30;99705.28;;;5.87;100.00
51369;BME280;37459;51.416;5.502;2022-11-21T10:23:17;99704.28;;;6.01;100.00
51369;BME280;37459;51.416;5.502;2022-11-21T10:25:54;99705.28;;;6.07;100.00
51369;BME280;37459;51.416;5.502;2022-11-21T10:28:23;99700.16;;;6.12;100.00
51369;BME280;37459;51.416;5.502;2022-11-21T10:30:55;99685.94;;;6.18;100.00
51369;BME280;37459;51.416;5.502;2022-11-21T10:33:29;99698.44;;;6.24;100.00
51369;BME280;37459;51.416;5.502;2022-11-21T10:36:00;99696.63;;;6.25;100.00
51369;BME280;37459;51.416;5.502;2022-11-21T10:38:36;99669.66;;;6.13;100.00
51369;BME280;37459;51.416;5.502;2022-11-21T10:41:07;99678.91;;;6.24;100.00
51369;BME280;37459;51.416;5.502;2022-11-21T10:43:39;99678.50;;;6.27;100.00
51369;BME280;37459;51.416;5.502;2022-11-21T10:46:25;99675.81;;;6.33;100.00
51369;BME280;37459;51.416;5.502;2022-11-21T10:48:55;99674.31;;;6.37;100.00
51369;BME280;37459;51.416;5.502;2022-11-21T10:51:34;99679.47;;;6.39;100.00
51369;BME280;37459;51.416;5.502;2022-11-21T10:54:04;99676.75;;;6.46;100.00
51369;BME280;37459;51.416;5.502;2022-11-21T10:56:51;99671.81;;;6.49;100.00
51369;BME280;37459;51.416;5.502;2022-11-21T10:59:25;99668.94;;;6.51;100.00
51369;BME280;37459;51.416;5.502;2022-11-21T11:01:57;99662.53;;;6.52;100.00
51369;BME280;37459;51.416;5.502;2022-11-21T11:04:25;99661.09;;;6.56;100.00
51369;BME280;37459;51.416;5.502;2022-11-21T11:06:53;99655.72;;;6.56;100.00
51369;BME280;37459;51.416;5.502;2022-11-21T11:09:27;99642.53;;;6.54;100.00
51369;BME280;37459;51.416;5.502;2022-11-21T11:12:20;99642.94;;;6.58;100.00
51369;BME280;37459;51.416;5.502;2022-11-21T11:14:52;99647.66;;;6.63;100.00
51369;BME280;37459;51.416;5.502;2022-11-21T11:17:28;99642.28;;;6.69;100.00
51369;BME280;37459;51.416;5.502;2022-11-21T11:19:59;99637.53;;;6.71;100.00
51369;BME280;37459;51.416;5.502;2022-11-21T11:22:28;99620.63;;;6.71;100.00
51369;BME280;37459;51.416;5.502;2022-11-21T11:24:55;99627.59;;;6.78;100.00
51369;BME280;37459;51.416;5.502;2022-11-21T11:27:26;99620.56;;;6.84;100.00
51369;BME280;37459;51.416;5.502;2022-11-21T11:30:05;99625.00;;;6.97;100.00
51369;BME280;37459;51.416;5.502;2022-11-21T11:32:32;99615.94;;;6.98;99.27
51369;BME280;37459;51.416;5.502;2022-11-21T11:34:59;99594.06;;;7.01;99.14
51369;BME280;37459;51.416;5.502;2022-11-21T11:37:34;99587.09;;;6.93;98.85
51369;BME280;37459;51.416;5.502;2022-11-21T11:40:12;99588.53;;;6.96;99.46
51369;BME280;37459;51.416;5.502;2022-11-21T11:43:01;99584.56;;;7.05;96.03
51369;BME280;37459;51.416;5.502;2022-11-21T11:48:52;99557.22;;;6.96;95.91
51369;BME280;37459;51.416;5.502;2022-11-21T11:51:22;99557.22;;;6.96;96.17
51369;BME280;37459;51.416;5.502;2022-11-21T11:53:55;99540.28;;;6.96;96.31
51369;BME280;37459;51.416;5.502;2022-11-21T11:56:27;99543.38;;;6.99;97.68
51369;BME280;37459;51.416;5.502;2022-11-21T11:59:00;99539.28;;;6.97;97.05
51369;BME280;37459;51.416;5.502;2022-11-21T12:01:32;99539.06;;;6.98;97.99
51369;BME280;37459;51.416;5.502;2022-11-21T12:04:04;99527.97;;;6.95;96.53
51369;BME280;37459;51.416;5.502;2022-11-21T12:06:33;99522.34;;;7.03;96.09
51369;BME280;37459;51.416;5.502;2022-11-21T12:09:13;99515.31;;;7.02;94.61
51369;BME280;37459;51.416;5.502;2022-11-21T12:11:49;99509.19;;;6.95;96.12
51369;BME280;37459;51.416;5.502;2022-11-21T12:14:56;99496.69;;;6.89;96.75
51369;BME280;37459;51.416;5.502;2022-11-21T12:17:49;99491.16;;;6.84;95.61
51369;BME280;37459;51.416;5.502;2022-11-21T12:20:20;99492.44;;;6.81;96.71
51369;BME280;37459;51.416;5.502;2022-11-21T12:22:48;99487.28;;;6.79;98.40
51369;BME280;37459;51.416;5.502;2022-11-21T12:25:18;99478.38;;;6.86;95.56
51369;BME280;37459;51.416;5.502;2022-11-21T12:27:51;99478.78;;;6.83;96.48
51369;BME280;37459;51.416;5.502;2022-11-21T12:30:46;99461.56;;;6.72;96.96
51369;BME280;37459;51.416;5.502;2022-11-21T12:33:19;99459.06;;;6.77;97.25
51369;BME280;37459;51.416;5.502;2022-11-21T12:36:01;99445.50;;;6.72;100.00
51369;BME280;37459;51.416;5.502;2022-11-21T12:38:48;99446.56;;;6.71;99.93
51369;BME280;37459;51.416;5.502;2022-11-21T12:41:27;99441.88;;;6.66;100.00
51369;BME280;37459;51.416;5.502;2022-11-21T12:44:23;99424.66;;;6.55;100.00
51369;BME280;37459;51.416;5.502;2022-11-21T12:47:01;99432.41;;;6.64;100.00
51369;BME280;37459;51.416;5.502;2022-11-21T12:49:35;99420.84;;;6.63;99.93
51369;BME280;37459;51.416;5.502;2022-11-21T12:52:27;99418.78;;;6.65;100.00
51369;BME280;37459;51.416;5.502;2022-11-21T12:55:21;99418.41;;;6.62;100.00
51369;BME280;37459;51.416;5.502;2022-11-21T12:58:04;99414.47;;;6.64;99.68
51369;BME280;37459;51.416;5.502;2022-11-21T13:00:40;99414.25;;;6.66;100.00
51369;BME280;37459;51.416;5.502;2022-11-21T13:03:38;99409.28;;;6.69;99.97
51369;BME280;37459;51.416;5.502;2022-11-21T13:06:12;99399.16;;;6.71;99.47
51369;BME280;37459;51.416;5.502;2022-11-21T13:08:41;99389.94;;;6.67;99.40
51369;BME280;37459;51.416;5.502;2022-11-21T13:11:11;99377.13;;;6.69;99.15
51369;BME280;37459;51.416;5.502;2022-11-21T13:14:05;99364.44;;;7.02;100.00
51369;BME280;37459;51.416;5.502;2022-11-21T13:16:35;99351.25;;;7.37;98.61
51369;BME280;37459;51.416;5.502;2022-11-21T13:19:14;99353.81;;;7.32;96.53